M I D A S
Marine Information and Data Acquisition System
Tripno 848 of the Zeeleeuw from 2005-02-18 08:11:09 to 2005-02-18 12:28:13
Back to CruiseResearch ActivitiesStationsMapUnderway DataData graphs

EquipmentUnitsComment
TimeDGPSUTC
LatitudeDGPSDM.mWGS84
LongitudeDGPSDM.mWGS84
HeadingGyrodeg 
SOGDGPSknotsSpeed over ground
COGDGPSdegCourse over ground
DepthEcho soundermeters200 kHz
Missing or incorrect values are displayed as -999
Navigation data collected by the RV Zeeleeuw from 2005-02-18 08:12:17 to 2005-02-18 12:34:27
Time Latitude Longitude Heading SOG COG Depth
2005-02-18 08:13:22 51°13.602 2°56.085 119.3 0.8 306 9.4
2005-02-18 08:14:22 51°13.62 2°56.025 119.5 3 294 -999
2005-02-18 08:15:22 51°13.658 2°55.927 128.4 4.6 303 -999
2005-02-18 08:16:22 51°13.703 2°55.818 118.2 4.9 298 -999
2005-02-18 08:17:21 51°13.722 2°55.735 93.6 1.8 289 13.5
2005-02-18 08:18:22 51°13.728 2°55.734 39.1 1.1 228 13
2005-02-18 08:19:22 51°13.732 2°55.72 358.4 -999 179 -999
2005-02-18 08:20:22 51°13.8 2°55.658 333.8 6 329 12.3
2005-02-18 08:21:21 51°13.904 2°55.578 339.2 7.4 336 12.5
2005-02-18 08:22:21 51°14.019 2°55.492 339 7.7 335 12.1
2005-02-18 08:23:21 51°14.136 2°55.401 337.5 7.9 334 11.8
2005-02-18 08:24:22 51°14.255 2°55.26 320.1 9.5 316 12.1
2005-02-18 08:25:21 51°14.36 2°55.064 313.8 10 310 12.4
2005-02-18 08:26:21 51°14.461 2°54.859 302 9.7 305 12.6
2005-02-18 08:27:22 51°14.502 2°54.623 277.3 9.1 278 12.6
2005-02-18 08:28:22 51°14.505 2°54.388 263.4 8.9 269 12.6
2005-02-18 08:29:22 51°14.45 2°54.182 241.2 8.5 239 11.7
2005-02-18 08:30:21 51°14.368 2°54.001 232.2 8.5 230 11.6
2005-02-18 08:31:21 51°14.305 2°53.86 234.6 4.7 232 11.7
2005-02-18 08:32:22 51°14.265 2°53.808 217 2.3 210 11.6
2005-02-18 08:33:21 51°14.239 2°53.797 207.8 1.3 185 11.5
2005-02-18 08:34:21 51°14.226 2°53.8 209 0.6 164 11.5
2005-02-18 08:35:21 51°14.222 2°53.807 215.6 0.2 83 11.4
2005-02-18 08:36:21 51°14.222 2°53.808 229.9 0.5 241 11.4
2005-02-18 08:37:21 51°14.175 2°53.682 242.4 8.3 241 11.4
2005-02-18 08:38:21 51°14.089 2°53.457 239.3 10.8 237 11.4
2005-02-18 08:39:22 51°13.984 2°53.196 239.2 12.1 237 11.5
2005-02-18 08:40:21 51°13.877 2°52.925 239.8 12.2 238 11.8
2005-02-18 08:41:21 51°13.768 2°52.649 240.3 12.3 239 11.9
2005-02-18 08:42:22 51°13.657 2°52.371 240 12.3 237 12
2005-02-18 08:43:21 51°13.548 2°52.098 240 12.3 238 12.1
2005-02-18 08:44:21 51°13.439 2°51.821 240.3 12.3 238 12.2
2005-02-18 08:45:22 51°13.33 2°51.54 240.4 12.3 238 12.1
2005-02-18 08:46:22 51°13.228 2°51.254 242.3 12.3 240 12.1
2005-02-18 08:47:21 51°13.126 2°50.972 241.9 12.4 240 12.3
2005-02-18 08:48:22 51°13.023 2°50.684 241.8 12.4 240 12.3
2005-02-18 08:49:21 51°12.922 2°50.402 242 12.4 240 12.4
2005-02-18 08:50:21 51°12.821 2°50.118 242.7 12.3 241 12.4
2005-02-18 08:51:22 51°12.718 2°49.831 242.9 12.4 241 12.5
2005-02-18 08:52:22 51°12.616 2°49.546 242.6 12.4 240 12.5
2005-02-18 08:53:21 51°12.516 2°49.263 242.3 12.4 240 12.5
2005-02-18 08:54:21 51°12.414 2°48.977 242.4 12.4 240 12.6
2005-02-18 08:55:21 51°12.312 2°48.691 242.2 12.4 240 12.7
2005-02-18 08:56:21 51°12.209 2°48.405 242.3 12.5 241 12.7
2005-02-18 08:57:21 51°12.105 2°48.12 242.2 12.4 240 12.6
2005-02-18 08:58:22 51°12.002 2°47.831 242.6 12.5 240 12.6
2005-02-18 08:59:22 51°11.898 2°47.541 242.9 12.6 241 12.4
2005-02-18 09:00:21 51°11.793 2°47.253 242.1 12.7 239 12.1
2005-02-18 09:01:22 51°11.686 2°46.96 242.6 12.7 240 11.8
2005-02-18 09:02:22 51°11.601 2°46.653 249.4 12.7 248 11.8
2005-02-18 09:03:21 51°11.522 2°46.344 248.9 12.7 248 12.1
2005-02-18 09:04:22 51°11.441 2°46.031 249.1 12.7 247 12.3
2005-02-18 09:05:21 51°11.361 2°45.723 249.6 12.6 248 12.3
2005-02-18 09:06:21 51°11.282 2°45.414 249.3 12.5 247 12.2
2005-02-18 09:07:21 51°11.203 2°45.107 250.2 12.5 249 12.2
2005-02-18 09:08:22 51°11.135 2°44.79 252.5 12.5 251 12.3
2005-02-18 09:09:22 51°11.065 2°44.477 252.6 12.6 251 12.4
2005-02-18 09:10:22 51°10.995 2°44.162 253 12.6 251 12.3
2005-02-18 09:11:22 51°10.924 2°43.847 252.4 12.7 250 12.4
2005-02-18 09:12:22 51°10.856 2°43.531 252.9 12.6 251 12.4
2005-02-18 09:13:22 51°10.785 2°43.217 252.6 12.7 250 12.3
2005-02-18 09:14:21 51°10.714 2°42.904 252.1 12.7 250 12.4
2005-02-18 09:15:21 51°10.643 2°42.591 252.4 12.7 251 12.4
2005-02-18 09:16:22 51°10.57 2°42.269 252.5 12.7 250 12.3
2005-02-18 09:17:22 51°10.499 2°41.949 252.2 12.8 250 12.4
2005-02-18 09:18:22 51°10.418 2°41.636 247.3 12.8 246 12.4
2005-02-18 09:19:22 51°10.329 2°41.328 246.7 12.8 245 12.3
2005-02-18 09:20:22 51°10.238 2°41.022 246.7 12.8 244 12.2
2005-02-18 09:21:22 51°10.149 2°40.713 247.7 12.8 245 12.1
2005-02-18 09:22:22 51°10.059 2°40.405 246.9 12.9 245 12.1
2005-02-18 09:23:21 51°9.976 2°40.092 254.2 12.9 256 12
2005-02-18 09:24:22 51°9.954 2°39.748 266.3 13 265 12.4
2005-02-18 09:25:22 51°9.934 2°39.406 266.1 12.9 264 12.7
2005-02-18 09:26:22 51°9.914 2°39.066 266.2 12.9 265 13.7
2005-02-18 09:27:22 51°9.893 2°38.729 265.9 12.8 265 12.2
2005-02-18 09:28:22 51°9.87 2°38.393 265.6 12.8 264 15.8
2005-02-18 09:29:22 51°9.849 2°38.057 266.1 12.8 264 15.3
2005-02-18 09:30:21 51°9.825 2°37.719 265.2 12.8 263 17.6
2005-02-18 09:31:21 51°9.801 2°37.385 265.3 12.8 263 18.1
2005-02-18 09:32:21 51°9.785 2°37.044 271.8 12.8 273 18.3
2005-02-18 09:33:21 51°9.832 2°36.71 285.3 13 284 19
2005-02-18 09:34:21 51°9.896 2°36.384 290.7 13.1 289 19.2
2005-02-18 09:35:21 51°9.968 2°36.054 289.8 13.1 289 19.7
2005-02-18 09:36:21 51°10.082 2°35.755 305.4 13.3 304 16.2
2005-02-18 09:37:21 51°10.253 2°35.523 323.2 13.5 321 12.4
2005-02-18 09:38:21 51°10.457 2°35.364 336.9 13.8 335 11.2
2005-02-18 09:39:21 51°10.675 2°35.343 21.9 13.7 25 10.7
2005-02-18 09:40:21 51°10.865 2°35.556 38.4 14 34 11.1
2005-02-18 09:41:21 51°11.053 2°35.784 46.6 14.3 43 11
2005-02-18 09:42:21 51°11.219 2°36.057 50 14.4 46 11.4
2005-02-18 09:43:21 51°11.386 2°36.332 51.1 14.4 46 11.9
2005-02-18 09:44:21 51°11.555 2°36.605 49.6 14.5 46 12.2
2005-02-18 09:45:21 51°11.721 2°36.879 50.5 14.5 46 12.6
2005-02-18 09:46:21 51°11.889 2°37.154 50.8 14.4 46 13.2
2005-02-18 09:47:21 51°12.057 2°37.43 50.1 14.4 45 13.5
2005-02-18 09:48:21 51°12.226 2°37.699 50.1 14.3 45 13.9
2005-02-18 09:49:21 51°12.409 2°37.937 34.9 14.2 34 14.1
2005-02-18 09:50:21 51°12.623 2°38.096 27.5 14.2 24 14.2
2005-02-18 09:51:21 51°12.837 2°38.251 28.7 14 25 14.6
2005-02-18 09:52:21 51°13.057 2°38.355 19.5 14 16 15.2
2005-02-18 09:53:21 51°13.28 2°38.459 20.8 13.9 17 15.5
2005-02-18 09:54:21 51°13.492 2°38.558 20.8 12.6 17 15.7
2005-02-18 09:55:21 51°13.611 2°38.61 17 6 16 15.6
2005-02-18 09:56:21 51°13.671 2°38.669 51 3.4 42 15.7
2005-02-18 09:57:21 51°13.687 2°38.691 96 0.8 12 15.6
2005-02-18 09:58:21 51°13.699 2°38.696 96.6 0.8 16 15.5
2005-02-18 09:59:21 51°13.713 2°38.699 88.3 2 64 15.3
2005-02-18 10:00:22 51°13.725 2°38.697 89.2 1.2 302 -999
2005-02-18 10:01:22 51°13.732 2°38.68 78.9 0.6 321 15
2005-02-18 10:02:22 51°13.738 2°38.662 75.4 1.5 274 14.9
2005-02-18 10:03:22 51°13.755 2°38.691 65.7 4.3 65 14.9
2005-02-18 10:04:21 51°13.764 2°38.806 105 3.6 93 15.5
2005-02-18 10:05:22 51°13.759 2°38.874 123.3 1.8 96 15.5
2005-02-18 10:06:21 51°13.757 2°38.911 133.5 1 80 15.7
2005-02-18 10:07:21 51°13.724 2°39.015 128.7 4.4 121 15.8
2005-02-18 10:08:22 51°13.744 2°39.023 147.3 1.6 354 -999
2005-02-18 10:09:21 51°13.658 2°39.065 181.4 8.7 175 15.3
2005-02-18 10:10:21 51°13.518 2°39.06 197.7 6.7 193 15.1
2005-02-18 10:11:21 51°13.45 2°38.99 228.7 3.8 224 15.2
2005-02-18 10:12:22 51°13.456 2°39.003 239.5 1.6 52 -999
2005-02-18 10:13:21 51°13.472 2°39.036 246.6 1.4 50 15.2
2005-02-18 10:14:22 51°13.478 2°39.041 247.4 0.4 280 15.2
2005-02-18 10:15:22 51°13.481 2°39.03 251.1 0.4 310 15.2
2005-02-18 10:16:21 51°13.485 2°39.023 247.5 0.2 302 15
2005-02-18 10:17:22 51°13.486 2°39.021 230 0.1 358 15.1
2005-02-18 10:18:22 51°13.486 2°39.026 213.7 0.3 99 14.9
2005-02-18 10:19:21 51°13.484 2°39.03 207.3 0.3 130 15.2
2005-02-18 10:20:21 51°13.481 2°39.034 209.8 0.2 140 15.1
2005-02-18 10:21:22 51°13.48 2°39.035 218.9 0.1 88 15.1
2005-02-18 10:22:22 51°13.482 2°39.037 235.1 0.5 267 15.1
2005-02-18 10:23:22 51°13.476 2°39.015 244.1 2.3 245 15
2005-02-18 10:24:22 51°13.475 2°38.99 260 0.6 15 14.9
2005-02-18 10:25:21 51°13.483 2°39.001 276.8 0.7 47 14.9
2005-02-18 10:26:22 51°13.488 2°39.018 266.5 0.7 76 14.9
2005-02-18 10:27:22 51°13.482 2°39.015 226.4 0.7 220 15
2005-02-18 10:28:22 51°13.472 2°39.004 222.4 0.7 211 14.9
2005-02-18 10:29:22 51°13.459 2°38.992 222.3 1 216 14.9
2005-02-18 10:30:22 51°13.446 2°38.978 221.1 0.8 212 14.8
2005-02-18 10:31:21 51°13.438 2°38.971 220.1 0.2 203 14.6
2005-02-18 10:32:21 51°13.414 2°38.961 192.3 1.4 183 14.7
2005-02-18 10:33:21 51°13.383 2°38.981 172.6 4.2 164 14.7
2005-02-18 10:34:21 51°13.324 2°39.003 170.1 4.2 160 14.8
2005-02-18 10:35:21 51°13.293 2°39.141 88.1 7 81 15
2005-02-18 10:36:21 51°13.396 2°39.243 12.7 9 8 16.2
2005-02-18 10:37:21 51°13.58 2°39.269 9.8 12 7 15.7
2005-02-18 10:38:21 51°13.804 2°39.286 3 13.7 -999 14.9
2005-02-18 10:39:21 51°14.018 2°39.182 333.1 13.5 333 14.6
2005-02-18 10:40:21 51°14.155 2°38.91 304.4 13.4 302 13.2
2005-02-18 10:41:21 51°14.223 2°38.577 276 13.2 276 16.8
2005-02-18 10:42:21 51°14.187 2°38.234 258 13.2 258 19.2
2005-02-18 10:43:20 51°14.144 2°37.895 260.1 13 259 20.4
2005-02-18 10:44:22 51°14.105 2°37.548 261.6 12.9 260 20.5
2005-02-18 10:45:21 51°14.07 2°37.212 262.4 12.9 261 18.8
2005-02-18 10:46:21 51°14.039 2°36.875 262.9 12.9 261 17.3
2005-02-18 10:47:21 51°14.007 2°36.531 263.4 13 262 16.1
2005-02-18 10:48:21 51°13.977 2°36.189 263.1 13 261 15.4
2005-02-18 10:49:21 51°13.95 2°35.848 266.3 13.1 265 14.9
2005-02-18 10:50:21 51°13.94 2°35.496 270.8 13.2 270 13.7
2005-02-18 10:51:21 51°13.957 2°35.149 283.6 13.3 285 13.2
2005-02-18 10:52:20 51°14.073 2°34.851 310.1 13.5 311 20.7
2005-02-18 10:53:21 51°14.26 2°34.637 332.8 13.7 332 20.9
2005-02-18 10:54:21 51°14.487 2°34.601 7 14 1 22.8
2005-02-18 10:55:21 51°14.709 2°34.711 30.3 14 26 24.1
2005-02-18 10:56:21 51°14.918 2°34.877 28.8 14.1 24 26
2005-02-18 10:57:21 51°15.117 2°35.064 39.1 14 34 26.9
2005-02-18 10:58:21 51°15.311 2°35.272 37.5 14 33 26.9
2005-02-18 10:59:21 51°15.505 2°35.468 36.7 13.9 32 27.3
2005-02-18 11:00:21 51°15.701 2°35.669 37 13.9 33 28
2005-02-18 11:01:21 51°15.895 2°35.867 35.7 13.9 32 27.8
2005-02-18 11:02:21 51°16.093 2°36.063 35.8 14 32 27.4
2005-02-18 11:03:21 51°16.289 2°36.255 36.1 14 31 28.3
2005-02-18 11:04:21 51°16.491 2°36.451 35 14.1 31 27.8
2005-02-18 11:05:21 51°16.692 2°36.645 35 14.1 31 27.5
2005-02-18 11:06:21 51°16.893 2°36.843 35.4 14.3 31 28.7
2005-02-18 11:07:21 51°17.096 2°37.04 35 14.3 31 27.9
2005-02-18 11:08:21 51°17.3 2°37.239 35.7 14.4 32 28.1
2005-02-18 11:09:21 51°17.5 2°37.439 35.7 14.2 33 28.2
2005-02-18 11:10:21 51°17.7 2°37.639 36.2 14.1 33 28.3
2005-02-18 11:11:21 51°17.899 2°37.838 34.1 14.1 32 27.1
2005-02-18 11:12:21 51°18.097 2°38.039 35.9 14.2 32 27.4
2005-02-18 11:13:21 51°18.299 2°38.236 34.1 14.3 32 27.3
2005-02-18 11:14:21 51°18.501 2°38.427 35.6 14.1 31 27.3
2005-02-18 11:15:21 51°18.702 2°38.618 35.2 14.1 31 27.6
2005-02-18 11:16:21 51°18.903 2°38.816 35.4 14.3 31 28
2005-02-18 11:17:21 51°19.108 2°39.012 35.5 14.3 33 29
2005-02-18 11:18:22 51°19.29 2°39.257 47.1 14.1 43 29.9
2005-02-18 11:19:22 51°19.451 2°39.533 52 14.2 48 30.3
2005-02-18 11:20:22 51°19.613 2°39.808 50.5 14.2 45 30.6
2005-02-18 11:21:21 51°19.773 2°40.077 50.4 14.1 46 29.7
2005-02-18 11:22:22 51°19.938 2°40.347 51.3 14.1 46 29.1
2005-02-18 11:23:21 51°20.104 2°40.611 49.4 14.3 44 29.3
2005-02-18 11:24:21 51°20.267 2°40.878 51.1 14.2 46 28.5
2005-02-18 11:25:22 51°20.395 2°41.191 66.9 14.1 63 24.3
2005-02-18 11:26:21 51°20.505 2°41.522 66.7 14.2 62 21.3
2005-02-18 11:27:22 51°20.588 2°41.876 86.3 14.2 84 21.3
2005-02-18 11:28:22 51°20.553 2°42.241 107 14 102 20
2005-02-18 11:29:22 51°20.512 2°42.61 104.3 14.2 99 22.7
2005-02-18 11:30:21 51°20.47 2°42.973 105.9 13.9 100 25.5
2005-02-18 11:31:21 51°20.431 2°43.333 104.3 13.7 101 26.9
2005-02-18 11:32:22 51°20.385 2°43.696 106.6 13.7 101 28.1
2005-02-18 11:33:22 51°20.338 2°44.055 107.8 13.9 102 27.9
2005-02-18 11:34:22 51°20.246 2°44.39 122.6 13.8 115 26
2005-02-18 11:35:21 51°20.15 2°44.719 120.8 13.8 114 25.1
2005-02-18 11:36:22 51°20.053 2°45.05 121 13.6 116 24.1
2005-02-18 11:37:21 51°19.962 2°45.376 120.7 13.6 116 21.2
2005-02-18 11:38:22 51°19.865 2°45.706 119.4 13.4 114 14.3
2005-02-18 11:39:21 51°19.769 2°46.026 120.3 13.3 116 14.7
2005-02-18 11:40:22 51°19.67 2°46.35 121.2 13.5 118 18.1
2005-02-18 11:41:22 51°19.574 2°46.674 119.7 13.5 115 21.3
2005-02-18 11:42:21 51°19.484 2°46.998 118.1 13.5 111 22
2005-02-18 11:43:22 51°19.389 2°47.327 122 13.6 116 22.2
2005-02-18 11:44:22 51°19.291 2°47.648 119.7 13.5 115 21.3
2005-02-18 11:45:22 51°19.193 2°47.971 119.8 13.4 115 19.4
2005-02-18 11:46:21 51°19.102 2°48.293 119 13.5 114 17.5
2005-02-18 11:47:22 51°19.007 2°48.617 119.2 13.3 115 14.8
2005-02-18 11:48:22 51°18.908 2°48.933 121.2 13.3 117 12.6
2005-02-18 11:49:22 51°18.809 2°49.247 120.5 13.3 116 11.3
2005-02-18 11:50:22 51°18.705 2°49.556 122.4 13.2 117 11.1
2005-02-18 11:51:22 51°18.595 2°49.862 126.7 13.4 123 13.4
2005-02-18 11:52:22 51°18.482 2°50.166 124.3 13.4 121 14.5
2005-02-18 11:53:22 51°18.361 2°50.459 126.7 13.2 123 14.4
2005-02-18 11:54:22 51°18.242 2°50.754 127.1 13.2 123 13.7
2005-02-18 11:55:21 51°18.121 2°51.045 128.2 13.2 125 12.9
2005-02-18 11:56:22 51°17.993 2°51.337 128.5 13.4 125 11.5
2005-02-18 11:57:22 51°17.862 2°51.623 129.1 13.1 126 10.5
2005-02-18 11:58:21 51°17.728 2°51.899 133.4 13.2 130 10.4
2005-02-18 11:59:22 51°17.563 2°52.131 146.6 13.2 143 10.6
2005-02-18 12:00:22 51°17.372 2°52.301 157.3 13.2 156 10.6
2005-02-18 12:01:21 51°17.162 2°52.389 170.5 13.1 167 10.2
2005-02-18 12:02:22 51°16.947 2°52.467 169.8 13.1 166 9.6
2005-02-18 12:03:22 51°16.733 2°52.544 169.6 13.3 168 9.8
2005-02-18 12:04:22 51°16.516 2°52.622 168.6 13.2 166 11.8
2005-02-18 12:05:22 51°16.3 2°52.704 168.9 13.5 167 12.4
2005-02-18 12:06:22 51°16.086 2°52.785 168.2 13.2 166 12.3
2005-02-18 12:07:22 51°15.872 2°52.87 168.4 13.1 164 12.2
2005-02-18 12:08:22 51°15.659 2°52.955 168.7 13.3 167 11.8
2005-02-18 12:09:22 51°15.444 2°53.033 169.2 13.3 167 11.2
2005-02-18 12:10:22 51°15.236 2°53.138 157.5 13.1 153 10.5
2005-02-18 12:11:22 51°15.066 2°53.356 137.9 13.2 136 9.8
2005-02-18 12:12:22 51°14.924 2°53.622 128.3 13.2 126 9.8
2005-02-18 12:13:22 51°14.831 2°53.833 140.3 7 137 10.1
2005-02-18 12:14:21 51°14.769 2°53.873 171.3 4.8 171 10.3
2005-02-18 12:15:22 51°14.741 2°53.872 195.4 1.2 193 10.7
2005-02-18 12:16:22 51°14.691 2°53.848 202.4 3 199 10.8
2005-02-18 12:17:22 51°14.66 2°53.82 219.2 2.2 212 10.8
2005-02-18 12:18:22 51°14.617 2°53.789 190.6 4.2 189 10.5
2005-02-18 12:19:22 51°14.56 2°53.922 108.7 8.1 106 10.5
2005-02-18 12:20:22 51°14.521 2°54.205 104.5 11.6 102 10.6
2005-02-18 12:21:22 51°14.483 2°54.512 103.5 11.8 100 10.6
2005-02-18 12:22:22 51°14.438 2°54.817 107.9 11.9 102 10.6
2005-02-18 12:23:22 51°14.354 2°55.093 124.3 11.8 117 10.3
2005-02-18 12:24:22 51°14.262 2°55.268 135 7.7 133 10.2
2005-02-18 12:25:22 51°14.168 2°55.379 154.1 6.7 152 10.2
2005-02-18 12:26:22 51°14.068 2°55.454 157.8 6.6 155 9.5
2005-02-18 12:27:22 51°13.967 2°55.532 156.1 6.8 153 10.3
2005-02-18 12:28:21 51°13.87 2°55.601 158.6 6.2 157 10.4
2005-02-18 12:29:22 51°13.784 2°55.679 147.3 5.8 144 10.2
2005-02-18 12:30:22 51°13.712 2°55.783 136.6 5.9 136 12.8
2005-02-18 12:31:22 51°13.656 2°55.911 124.9 5.6 122 10.1
2005-02-18 12:32:21 51°13.619 2°56.012 120.2 3.9 118 10.4
2005-02-18 12:33:22 51°13.6 2°56.085 114.4 2.4 112 7.3
2005-02-18 12:34:22 51°13.595 2°56.103 124.5 0.3 142 7.3